Time;durP1;ratioP1;P1;durP2;ratioP2;P2;SDS_P1;SDS_P2;PMS_P1;PMS_P2;Temp;Humidity;BMP_temperature;BMP_pressure;BME280_temperature;BME280_humidity;BME280_pressure;Samples;Min_cycle;Max_cycle;Signal;HPM_P1;HPM_P2
2021/10/14 00:01:14;;;;;;;15.93;3.85;;;12.60;99.90;;;;;;4988690;28;20852;-80
2021/10/14 00:03:43;;;;;;;12.57;3.70;;;12.60;99.90;;;;;;4987516;28;21563;-80
2021/10/14 00:06:10;;;;;;;15.43;3.22;;;12.60;99.90;;;;;;4993774;28;20049;-80
2021/10/14 00:08:36;;;;;;;13.43;3.50;;;12.60;99.90;;;;;;4978282;28;20473;-80
2021/10/14 00:11:02;;;;;;;12.27;3.53;;;12.60;99.90;;;;;;4995366;28;20030;-80
2021/10/14 00:13:28;;;;;;;15.93;3.67;;;12.60;99.90;;;;;;4991815;28;20030;-79
2021/10/14 00:15:53;;;;;;;18.73;3.13;;;12.60;99.90;;;;;;4984037;28;20116;-79
2021/10/14 00:18:19;;;;;;;15.05;3.33;;;12.60;99.90;;;;;;4969963;28;20123;-79
2021/10/14 00:20:45;;;;;;;13.63;3.13;;;12.70;99.90;;;;;;4990153;28;20096;-79
2021/10/14 00:23:11;;;;;;;10.32;2.80;;;12.60;99.90;;;;;;4993376;28;20042;-79
2021/10/14 00:25:37;;;;;;;11.73;3.00;;;12.60;99.90;;;;;;4988018;28;20480;-80
2021/10/14 00:28:03;;;;;;;10.23;2.63;;;12.60;99.90;;;;;;4989960;28;20038;-79
2021/10/14 00:30:29;;;;;;;13.05;3.15;;;12.50;99.90;;;;;;4980671;28;20042;-79
2021/10/14 00:32:55;;;;;;;13.07;2.92;;;12.50;99.90;;;;;;4974926;28;20042;-79
2021/10/14 00:35:21;;;;;;;17.05;3.20;;;12.60;99.90;;;;;;4989142;28;20082;-79
2021/10/14 00:37:48;;;;;;;12.23;2.75;;;12.50;99.90;;;;;;4988734;28;20117;-79
2021/10/14 00:40:16;;;;;;;14.68;3.08;;;12.50;99.90;;;;;;4974412;28;20053;-79
2021/10/14 00:42:44;;;;;;;8.60;3.08;;;12.50;99.90;;;;;;4973971;28;20468;-79
2021/10/14 00:45:10;;;;;;;10.68;3.10;;;12.50;99.90;;;;;;4985855;28;20061;-79
2021/10/14 00:47:38;;;;;;;12.45;3.35;;;12.40;99.90;;;;;;4974640;28;20050;-79
2021/10/14 00:50:06;;;;;;;15.68;3.20;;;12.40;99.90;;;;;;4987982;28;20047;-79
2021/10/14 00:52:33;;;;;;;7.18;2.78;;;12.40;99.90;;;;;;4991464;28;20620;-79
2021/10/14 00:54:59;;;;;;;10.98;3.08;;;12.40;99.90;;;;;;4979332;28;20160;-79
2021/10/14 00:57:25;;;;;;;17.83;3.67;;;12.40;99.90;;;;;;4984546;28;20176;-79
2021/10/14 00:59:51;;;;;;;10.75;3.40;;;12.30;99.90;;;;;;4988010;28;20084;-79
2021/10/14 01:02:17;;;;;;;13.88;3.42;;;12.30;99.90;;;;;;4986674;28;20030;-79
2021/10/14 01:04:42;;;;;;;15.05;3.22;;;12.30;99.90;;;;;;5009690;28;20034;-79
2021/10/14 01:07:08;;;;;;;17.58;4.07;;;12.30;99.90;;;;;;4974944;28;20042;-79
2021/10/14 01:09:34;;;;;;;14.45;3.45;;;12.30;99.90;;;;;;4992003;28;20100;-79
2021/10/14 01:12:02;;;;;;;14.90;3.65;;;12.30;99.90;;;;;;4993148;28;20041;-78
2021/10/14 01:14:27;;;;;;;11.88;3.60;;;12.30;99.90;;;;;;4971716;28;20124;-79
2021/10/14 01:16:53;;;;;;;12.95;4.13;;;12.20;99.90;;;;;;4990432;28;20467;-79
2021/10/14 01:19:19;;;;;;;10.95;4.15;;;12.20;99.90;;;;;;4980420;28;20488;-79
2021/10/14 01:21:47;;;;;;;15.57;3.78;;;12.20;99.90;;;;;;4992179;28;20034;-79
2021/10/14 01:24:12;;;;;;;11.77;3.70;;;12.20;99.90;;;;;;4992146;28;20425;-79
2021/10/14 01:26:42;;;;;;;16.55;4.40;;;12.20;99.90;;;;;;4977503;28;20121;-79
2021/10/14 01:29:08;;;;;;;13.43;4.10;;;12.20;99.90;;;;;;4979047;28;20211;-79
2021/10/14 01:31:34;;;;;;;11.82;3.90;;;12.20;99.90;;;;;;4979291;28;20040;-79
2021/10/14 01:34:00;;;;;;;12.32;3.70;;;12.20;99.90;;;;;;4995633;28;20053;-79
2021/10/14 01:36:26;;;;;;;21.80;4.03;;;12.20;99.90;;;;;;4976738;28;20489;-79
2021/10/14 01:38:51;;;;;;;19.45;3.13;;;12.20;99.90;;;;;;4989785;28;20059;-79
2021/10/14 01:41:17;;;;;;;10.60;3.03;;;12.20;99.90;;;;;;4977291;28;20053;-80
2021/10/14 01:43:43;;;;;;;11.48;3.28;;;12.20;99.90;;;;;;4996521;28;20104;-79
2021/10/14 01:46:09;;;;;;;13.23;3.30;;;12.20;99.90;;;;;;4998093;28;20038;-79
2021/10/14 01:48:35;;;;;;;14.65;3.63;;;12.20;99.90;;;;;;4989697;28;20137;-79
2021/10/14 01:51:02;;;;;;;15.70;3.28;;;12.30;99.90;;;;;;4991082;28;20520;-79
2021/10/14 01:53:28;;;;;;;10.65;3.17;;;12.30;99.90;;;;;;4995651;28;20109;-79
2021/10/14 01:55:54;;;;;;;9.63;2.47;;;12.30;99.90;;;;;;4990962;28;20141;-79
2021/10/14 01:58:20;;;;;;;14.48;2.83;;;12.30;99.90;;;;;;4990415;28;20148;-79
2021/10/14 02:00:51;;;;;;;14.88;2.70;;;12.40;99.90;;;;;;4991182;28;20047;-79
2021/10/14 02:03:17;;;;;;;11.15;2.50;;;12.40;99.90;;;;;;4989307;28;20059;-79
2021/10/14 02:05:44;;;;;;;8.82;2.17;;;12.40;99.90;;;;;;5007541;28;20437;-79
2021/10/14 02:08:09;;;;;;;9.00;2.10;;;12.50;99.90;;;;;;4988897;28;20049;-78
2021/10/14 02:10:35;;;;;;;9.98;2.35;;;12.50;99.90;;;;;;4971844;28;20512;-79
2021/10/14 02:13:02;;;;;;;15.20;2.58;;;12.50;99.90;;;;;;5013421;28;20049;-79
2021/10/14 02:15:28;;;;;;;11.77;2.53;;;12.50;99.90;;;;;;4996764;28;20046;-79
2021/10/14 02:17:53;;;;;;;10.40;2.75;;;12.50;99.90;;;;;;4972550;28;20052;-79
2021/10/14 02:20:21;;;;;;;12.23;3.00;;;12.40;99.90;;;;;;4989756;28;20046;-79
2021/10/14 02:22:46;;;;;;;16.40;3.17;;;12.30;99.90;;;;;;4982565;28;20037;-79
2021/10/14 02:25:14;;;;;;;14.00;2.80;;;12.30;99.90;;;;;;4967875;28;20058;-79
2021/10/14 02:27:40;;;;;;;13.52;3.30;;;12.30;99.90;;;;;;4984538;28;20045;-79
2021/10/14 02:30:09;;;;;;;10.40;3.10;;;12.30;99.90;;;;;;4990582;28;20133;-79
2021/10/14 02:32:35;;;;;;;10.57;2.80;;;12.20;99.90;;;;;;4987457;28;20039;-79
2021/10/14 02:35:02;;;;;;;7.60;2.65;;;12.20;99.90;;;;;;4977283;28;20076;-79
2021/10/14 02:37:28;;;;;;;11.00;3.17;;;12.20;99.90;;;;;;4967971;28;20058;-78
2021/10/14 02:39:54;;;;;;;8.35;3.30;;;12.20;99.90;;;;;;4975223;28;20096;-79
2021/10/14 02:42:20;;;;;;;20.20;3.40;;;12.20;99.90;;;;;;5008093;28;20041;-79
2021/10/14 02:44:46;;;;;;;10.85;3.72;;;12.20;99.90;;;;;;4990147;28;20050;-79
2021/10/14 02:47:11;;;;;;;10.43;3.30;;;12.10;99.90;;;;;;4992214;28;20084;-79
2021/10/14 02:49:37;;;;;;;11.68;3.42;;;12.00;99.90;;;;;;4993052;28;20066;-79
2021/10/14 02:52:04;;;;;;;16.52;3.22;;;12.00;99.90;;;;;;4988298;28;20038;-79
2021/10/14 02:54:30;;;;;;;9.15;3.55;;;12.00;99.90;;;;;;4992650;28;20068;-79
2021/10/14 02:56:55;;;;;;;14.00;3.75;;;12.00;99.90;;;;;;4984904;28;20066;-79
2021/10/14 02:59:21;;;;;;;13.02;3.42;;;12.00;99.90;;;;;;5006264;28;20041;-79
2021/10/14 03:01:47;;;;;;;15.80;3.30;;;11.90;99.90;;;;;;4995917;28;20075;-79
2021/10/14 03:04:12;;;;;;;11.52;3.30;;;11.90;99.90;;;;;;4989877;28;20947;-80
2021/10/14 03:06:38;;;;;;;12.27;3.67;;;11.80;99.90;;;;;;4986470;28;20046;-79
2021/10/14 03:09:04;;;;;;;13.48;3.55;;;11.90;99.90;;;;;;5005811;28;20073;-79
2021/10/14 03:11:30;;;;;;;15.93;3.80;;;11.80;99.90;;;;;;4988245;28;20161;-78
2021/10/14 03:13:56;;;;;;;18.55;4.07;;;11.80;99.90;;;;;;4982419;28;20069;-79
2021/10/14 03:16:21;;;;;;;22.90;4.85;;;11.90;99.90;;;;;;5008037;28;20049;-79
2021/10/14 03:18:48;;;;;;;15.13;4.68;;;11.80;99.90;;;;;;4975176;28;20092;-79
2021/10/14 03:21:15;;;;;;;12.00;4.22;;;11.90;99.90;;;;;;4984551;28;20486;-79
2021/10/14 03:23:41;;;;;;;17.23;3.95;;;11.80;99.90;;;;;;4969910;28;21574;-79
2021/10/14 03:26:06;;;;;;;15.13;3.90;;;11.80;99.90;;;;;;5002928;28;20101;-79
2021/10/14 03:28:32;;;;;;;11.55;3.65;;;11.80;99.90;;;;;;4989387;28;20378;-79
2021/10/14 03:30:58;;;;;;;14.23;3.85;;;11.80;99.90;;;;;;4986765;28;20075;-79
2021/10/14 03:33:24;;;;;;;18.10;4.10;;;11.70;99.90;;;;;;4989495;28;20093;-79
2021/10/14 03:35:49;;;;;;;12.35;3.72;;;11.70;99.90;;;;;;4987636;28;20045;-79
2021/10/14 03:38:15;;;;;;;14.35;4.05;;;11.70;99.90;;;;;;4972790;28;20042;-79
2021/10/14 03:40:41;;;;;;;18.95;4.80;;;11.70;99.90;;;;;;5005538;28;20037;-79
2021/10/14 03:43:07;;;;;;;10.75;4.78;;;11.60;99.90;;;;;;4990057;28;20050;-79
2021/10/14 03:45:33;;;;;;;15.32;5.18;;;11.70;99.90;;;;;;4988911;28;20037;-79
2021/10/14 03:47:59;;;;;;;11.90;4.90;;;11.80;99.90;;;;;;5002479;28;20465;-79
2021/10/14 03:50:25;;;;;;;16.50;5.40;;;11.70;99.90;;;;;;4987571;28;20061;-79
2021/10/14 03:52:51;;;;;;;13.23;5.10;;;11.80;99.90;;;;;;4987800;28;20042;-79
2021/10/14 03:55:16;;;;;;;15.00;5.90;;;11.80;99.90;;;;;;4972595;28;20067;-79
2021/10/14 03:57:42;;;;;;;14.98;5.63;;;11.80;99.90;;;;;;4983779;28;20128;-79
2021/10/14 04:00:09;;;;;;;17.30;5.60;;;11.80;99.90;;;;;;4987092;28;20045;-80
2021/10/14 04:02:34;;;;;;;17.25;5.93;;;11.80;99.90;;;;;;4989040;28;20181;-79
2021/10/14 04:05:00;;;;;;;15.73;5.57;;;11.80;99.90;;;;;;4989488;28;20468;-79
2021/10/14 04:07:26;;;;;;;16.85;5.70;;;11.80;99.90;;;;;;4982543;28;20048;-79
2021/10/14 04:09:52;;;;;;;12.88;5.70;;;11.80;99.90;;;;;;4970564;28;20046;-79
2021/10/14 04:12:18;;;;;;;17.95;6.30;;;11.80;99.90;;;;;;4984993;28;20116;-79
2021/10/14 04:14:43;;;;;;;14.15;5.55;;;11.80;99.90;;;;;;4986735;28;20109;-79
2021/10/14 04:17:09;;;;;;;17.55;5.88;;;11.80;99.90;;;;;;4986177;28;20093;-79
2021/10/14 04:19:35;;;;;;;13.70;6.20;;;11.90;99.90;;;;;;4973834;28;20061;-79
2021/10/14 04:22:00;;;;;;;17.33;6.00;;;12.00;99.90;;;;;;4986736;28;20042;-78
2021/10/14 04:24:28;;;;;;;12.35;5.50;;;11.90;99.90;;;;;;4966373;28;20280;-79
2021/10/14 04:26:55;;;;;;;11.32;5.93;;;11.90;99.90;;;;;;4967050;28;20054;-79
2021/10/14 04:29:20;;;;;;;13.77;5.35;;;11.90;99.90;;;;;;4964659;28;20181;-78
2021/10/14 04:31:46;;;;;;;12.70;5.82;;;11.90;99.90;;;;;;4970231;28;20048;-79
2021/10/14 04:34:12;;;;;;;10.43;5.40;;;11.90;99.90;;;;;;4953926;28;20054;-79
2021/10/14 04:36:38;;;;;;;11.90;5.30;;;12.00;99.90;;;;;;4958184;28;20526;-79
2021/10/14 04:39:05;;;;;;;10.38;5.18;;;12.00;99.90;;;;;;4964669;28;20074;-79
2021/10/14 04:41:32;;;;;;;15.27;5.07;;;12.00;99.90;;;;;;4966485;28;20081;-79
2021/10/14 04:43:58;;;;;;;12.77;4.80;;;12.00;99.90;;;;;;4958095;28;20486;-80
2021/10/14 04:46:23;;;;;;;14.68;5.38;;;12.00;99.90;;;;;;4962845;28;20185;-80
2021/10/14 04:48:49;;;;;;;11.05;4.85;;;12.00;99.90;;;;;;4952749;28;20042;-78
2021/10/14 04:51:15;;;;;;;15.35;5.18;;;12.00;99.90;;;;;;4968398;28;20129;-77
2021/10/14 04:53:40;;;;;;;10.52;4.93;;;12.00;99.90;;;;;;4964315;28;20117;-77
2021/10/14 04:56:06;;;;;;;15.63;5.47;;;12.00;99.90;;;;;;4973506;28;20046;-76
2021/10/14 04:58:32;;;;;;;11.40;4.90;;;12.00;99.90;;;;;;4963518;28;20058;-78
2021/10/14 05:00:58;;;;;;;9.60;4.78;;;12.00;99.90;;;;;;4959261;28;20047;-76
2021/10/14 05:03:24;;;;;;;17.20;5.50;;;12.00;99.90;;;;;;4959008;28;20050;-78
2021/10/14 05:05:50;;;;;;;11.70;4.82;;;12.00;99.90;;;;;;4971801;28;20348;-78
2021/10/14 05:08:15;;;;;;;9.57;5.35;;;12.00;99.90;;;;;;4971984;28;20074;-78
2021/10/14 05:10:41;;;;;;;13.50;5.25;;;12.10;99.90;;;;;;4971035;28;20164;-76
2021/10/14 05:13:08;;;;;;;9.82;5.65;;;12.10;99.90;;;;;;4970302;28;20411;-79
2021/10/14 05:15:34;;;;;;;11.02;5.50;;;12.10;99.90;;;;;;4989497;28;20035;-77
2021/10/14 05:18:00;;;;;;;13.40;6.20;;;12.10;99.90;;;;;;4967505;28;20042;-77
2021/10/14 05:20:25;;;;;;;10.32;5.80;;;12.10;99.90;;;;;;4977776;28;20436;-76
2021/10/14 05:22:51;;;;;;;15.57;6.20;;;12.10;99.90;;;;;;4950361;28;20460;-79
2021/10/14 05:25:17;;;;;;;11.85;5.82;;;12.10;99.90;;;;;;4954515;28;20140;-79
2021/10/14 05:27:43;;;;;;;10.98;5.63;;;12.10;99.90;;;;;;4955614;28;20085;-79
2021/10/14 05:30:09;;;;;;;12.95;6.03;;;12.10;99.90;;;;;;4975121;28;20031;-75
2021/10/14 05:32:35;;;;;;;11.00;5.85;;;12.10;99.90;;;;;;4972475;28;20042;-76
2021/10/14 05:35:01;;;;;;;7.90;5.90;;;12.10;99.90;;;;;;4954848;28;20057;-76
2021/10/14 05:37:28;;;;;;;15.20;6.97;;;12.10;99.90;;;;;;4955096;28;20120;-76
2021/10/14 05:39:54;;;;;;;22.27;7.00;;;12.10;99.90;;;;;;4962088;28;20153;-79
2021/10/14 05:42:20;;;;;;;15.27;6.93;;;12.00;99.90;;;;;;4966591;28;20058;-80
2021/10/14 05:44:46;;;;;;;13.18;7.00;;;12.00;99.90;;;;;;4967002;28;20114;-77
2021/10/14 05:47:11;;;;;;;13.75;6.68;;;12.10;99.90;;;;;;4953349;28;20108;-79
2021/10/14 05:49:37;;;;;;;13.88;7.38;;;12.10;99.90;;;;;;4966605;28;20180;-79
2021/10/14 05:52:04;;;;;;;15.88;7.55;;;12.20;99.90;;;;;;4968564;28;22264;-80
2021/10/14 05:54:29;;;;;;;14.13;7.18;;;12.20;99.90;;;;;;4985410;28;20065;-78
2021/10/14 05:56:55;;;;;;;14.82;7.40;;;12.20;99.90;;;;;;4965984;28;20046;-80
2021/10/14 05:59:21;;;;;;;16.77;8.00;;;12.30;99.90;;;;;;4952103;28;20050;-78
2021/10/14 06:01:46;;;;;;;20.08;8.48;;;12.20;99.90;;;;;;4949028;28;20074;-77
2021/10/14 06:04:12;;;;;;;21.95;8.48;;;12.30;99.90;;;;;;4971916;28;20207;-79
2021/10/14 06:06:38;;;;;;;23.92;8.30;;;12.30;99.90;;;;;;4950488;28;20062;-76
2021/10/14 06:09:03;;;;;;;19.85;8.70;;;12.30;99.90;;;;;;4957766;28;20046;-75
2021/10/14 06:11:29;;;;;;;18.80;8.95;;;12.30;99.90;;;;;;4971152;28;20030;-75
2021/10/14 06:13:55;;;;;;;20.23;8.88;;;12.30;99.90;;;;;;4968544;28;20041;-75
2021/10/14 06:16:20;;;;;;;23.13;9.38;;;12.40;99.90;;;;;;4989924;28;20061;-78
2021/10/14 06:18:46;;;;;;;19.17;9.40;;;12.30;99.90;;;;;;4971354;28;20039;-78
2021/10/14 06:21:12;;;;;;;28.25;9.95;;;12.40;99.90;;;;;;4972742;28;20521;-77
2021/10/14 06:23:37;;;;;;;24.90;10.10;;;12.40;99.90;;;;;;4965590;28;20054;-76
2021/10/14 06:26:03;;;;;;;19.85;9.45;;;12.40;99.90;;;;;;4986259;28;20113;-77
2021/10/14 06:28:29;;;;;;;19.90;9.55;;;12.40;99.90;;;;;;5010567;28;20037;-78
2021/10/14 06:30:55;;;;;;;24.45;9.80;;;12.40;99.90;;;;;;4977173;28;20046;-79
2021/10/14 06:33:20;;;;;;;20.67;9.50;;;12.40;99.90;;;;;;4988350;28;20180;-76
2021/10/14 06:35:46;;;;;;;23.60;9.68;;;12.50;99.90;;;;;;5009952;28;20111;-77
2021/10/14 06:38:12;;;;;;;19.00;9.60;;;12.50;99.90;;;;;;4994270;28;20124;-78
2021/10/14 06:40:37;;;;;;;18.58;10.00;;;12.50;99.90;;;;;;4977022;28;20057;-77
2021/10/14 06:43:03;;;;;;;16.90;9.25;;;12.50;99.90;;;;;;4990990;28;20060;-78
2021/10/14 06:45:29;;;;;;;22.15;9.77;;;12.50;99.90;;;;;;4975733;28;20042;-77
2021/10/14 06:47:54;;;;;;;24.40;9.82;;;12.60;99.90;;;;;;4983732;28;20128;-78
2021/10/14 06:50:20;;;;;;;16.55;9.43;;;12.60;99.90;;;;;;4994952;28;20049;-76
2021/10/14 06:52:46;;;;;;;21.58;10.32;;;12.50;99.90;;;;;;4981762;28;20521;-76
2021/10/14 06:55:12;;;;;;;17.90;9.90;;;12.60;99.90;;;;;;4988155;28;20501;-78
2021/10/14 06:57:37;;;;;;;25.48;9.93;;;12.50;99.90;;;;;;4989222;28;20092;-79
2021/10/14 07:00:05;;;;;;;23.13;10.38;;;12.60;99.90;;;;;;4988303;28;20050;-77
2021/10/14 07:02:31;;;;;;;18.00;9.68;;;12.60;99.90;;;;;;5006838;28;20038;-77
2021/10/14 07:04:58;;;;;;;16.90;10.13;;;12.60;99.90;;;;;;4984947;28;20045;-81
2021/10/14 07:07:24;;;;;;;20.73;10.40;;;12.60;99.90;;;;;;4973262;28;20048;-82
2021/10/14 07:09:50;;;;;;;19.65;10.63;;;13.40;99.90;;;;;;4969668;28;20034;-81
2021/10/14 07:12:17;;;;;;;17.85;10.52;;;12.70;99.90;;;;;;4993674;28;20081;-80
2021/10/14 07:14:43;;;;;;;18.60;10.60;;;12.70;99.90;;;;;;4991336;28;20045;-82
2021/10/14 07:17:09;;;;;;;25.13;11.15;;;12.70;99.90;;;;;;4989206;28;20054;-82
2021/10/14 07:19:35;;;;;;;21.27;10.60;;;12.70;99.90;;;;;;4976124;28;20449;-83
2021/10/14 07:22:02;;;;;;;19.05;10.63;;;12.70;99.90;;;;;;4989895;28;20509;-80
2021/10/14 07:24:30;;;;;;;18.85;10.32;;;12.70;99.90;;;;;;4992453;28;20056;-79
2021/10/14 07:26:57;;;;;;;16.33;9.93;;;12.70;99.90;;;;;;5008083;28;20146;-80
2021/10/14 07:29:23;;;;;;;17.95;11.10;;;12.70;99.90;;;;;;4957135;28;20054;-82
2021/10/14 07:31:49;;;;;;;17.90;10.63;;;12.70;99.90;;;;;;4963051;28;20042;-80
2021/10/14 07:34:15;;;;;;;20.23;10.77;;;12.80;99.90;;;;;;4974152;28;20053;-80
2021/10/14 07:36:40;;;;;;;15.30;10.10;;;12.80;99.90;;;;;;4982533;28;20133;-81
2021/10/14 07:39:06;;;;;;;15.07;9.30;;;12.80;99.90;;;;;;4976275;28;20092;-80
2021/10/14 07:41:32;;;;;;;20.25;10.20;;;12.80;99.90;;;;;;4975942;28;20133;-82
2021/10/14 07:44:00;;;;;;;17.65;9.80;;;12.80;99.90;;;;;;4993176;28;20498;-78
2021/10/14 07:46:27;;;;;;;14.93;9.98;;;12.80;99.90;;;;;;4968880;28;20061;-81
2021/10/14 07:48:54;;;;;;;15.40;10.45;;;12.90;99.90;;;;;;5004920;28;20088;-82
2021/10/14 07:51:20;;;;;;;15.32;10.07;;;12.90;99.90;;;;;;4991014;28;20129;-79
2021/10/14 07:53:45;;;;;;;14.85;10.10;;;13.00;99.90;;;;;;4973453;28;20074;-79
2021/10/14 07:56:11;;;;;;;20.15;10.55;;;13.10;99.90;;;;;;4976978;28;20497;-78
2021/10/14 07:58:37;;;;;;;19.52;10.02;;;13.10;99.90;;;;;;5010347;28;20361;-81
2021/10/14 08:01:03;;;;;;;14.50;9.50;;;13.00;99.90;;;;;;4985162;28;20461;-79
2021/10/14 08:03:30;;;;;;;17.58;9.52;;;13.00;99.90;;;;;;4968854;28;20050;-79
2021/10/14 08:05:56;;;;;;;15.68;8.50;;;13.00;99.90;;;;;;4982675;28;20462;-83
2021/10/14 08:08:21;;;;;;;13.30;8.10;;;13.10;99.90;;;;;;4984894;28;20130;-78
2021/10/14 08:10:47;;;;;;;13.55;8.45;;;13.10;99.90;;;;;;4977738;28;20038;-80
2021/10/14 08:13:16;;;;;;;13.32;8.10;;;13.10;99.90;;;;;;4968608;28;20200;-82
2021/10/14 08:15:48;;;;;;;13.60;8.05;;;13.10;99.90;;;;;;4964474;28;20111;-78
2021/10/14 08:18:14;;;;;;;12.00;7.80;;;13.10;99.90;;;;;;5003039;28;20052;-80
2021/10/14 08:20:40;;;;;;;11.48;7.03;;;13.10;99.90;;;;;;4987137;28;20401;-83
2021/10/14 08:23:07;;;;;;;10.80;7.18;;;13.20;99.90;;;;;;4980642;28;20596;-79
2021/10/14 08:25:33;;;;;;;12.35;7.32;;;13.10;99.90;;;;;;4987108;28;20042;-82
2021/10/14 08:27:58;;;;;;;12.63;7.00;;;13.10;99.90;;;;;;4972777;28;20046;-82
2021/10/14 08:30:24;;;;;;;11.60;6.60;;;13.10;99.90;;;;;;4987065;28;20077;-82
2021/10/14 08:32:52;;;;;;;9.88;5.13;;;13.20;99.90;;;;;;4981150;28;20038;-76
2021/10/14 08:35:19;;;;;;;9.15;5.53;;;13.30;99.90;;;;;;4991470;28;20084;-79
2021/10/14 08:37:45;;;;;;;9.95;4.45;;;13.30;99.90;;;;;;4974199;28;20089;-80
2021/10/14 08:40:11;;;;;;;7.47;4.93;;;13.30;99.90;;;;;;4972302;28;20084;-78
2021/10/14 08:42:38;;;;;;;8.55;4.88;;;13.40;99.90;;;;;;4991552;28;20045;-79
2021/10/14 08:45:07;;;;;;;7.80;4.57;;;13.50;99.90;;;;;;5008859;28;20409;-79
2021/10/14 08:47:34;;;;;;;8.00;3.53;;;13.50;99.90;;;;;;4991893;28;20342;-79
2021/10/14 08:50:00;;;;;;;8.27;4.25;;;13.50;99.90;;;;;;4988553;28;20041;-81
2021/10/14 08:52:26;;;;;;;8.23;3.85;;;13.50;99.90;;;;;;5007658;28;20044;-80
2021/10/14 08:54:52;;;;;;;6.45;3.80;;;13.60;99.90;;;;;;4967261;28;20038;-82
2021/10/14 08:57:17;;;;;;;9.07;4.55;;;13.60;99.90;;;;;;4994241;28;20037;-78
2021/10/14 08:59:43;;;;;;;7.93;4.38;;;13.60;99.90;;;;;;5008097;28;20038;-80
2021/10/14 09:02:09;;;;;;;7.35;4.35;;;13.60;99.90;;;;;;4992189;28;20045;-78
2021/10/14 09:04:47;;;;;;;7.20;4.18;;;13.70;99.90;;;;;;4973004;28;20132;-82
2021/10/14 09:07:13;;;;;;;9.98;4.60;;;13.80;99.90;;;;;;4992144;28;20085;-80
2021/10/14 09:09:39;;;;;;;10.15;4.20;;;13.80;99.90;;;;;;4959643;28;20038;-79
2021/10/14 09:12:07;;;;;;;7.40;4.20;;;13.80;99.90;;;;;;4981951;28;20058;-77
2021/10/14 09:14:50;;;;;;;6.90;3.88;;;13.80;99.90;;;;;;4992098;28;20129;-83
2021/10/14 09:17:16;;;;;;;9.35;4.13;;;13.80;99.90;;;;;;4985483;28;20050;-82
2021/10/14 09:19:42;;;;;;;9.05;4.10;;;13.80;99.90;;;;;;4988968;28;20048;-79
2021/10/14 09:22:08;;;;;;;10.90;4.90;;;13.80;99.90;;;;;;4990812;28;20373;-80
2021/10/14 09:24:38;;;;;;;10.30;4.88;;;13.80;99.90;;;;;;4989721;28;20078;-81
2021/10/14 09:27:11;;;;;;;7.80;4.65;;;13.80;99.90;;;;;;4973964;28;20074;-83
2021/10/14 09:29:38;;;;;;;9.07;4.22;;;13.90;99.90;;;;;;4969803;28;20052;-78
2021/10/14 09:32:15;;;;;;;13.95;4.20;;;13.90;99.90;;;;;;4974923;28;20061;-79
2021/10/14 09:34:43;;;;;;;8.30;4.43;;;13.90;99.90;;;;;;4992820;28;20042;-79
2021/10/14 09:37:15;;;;;;;7.97;4.35;;;14.00;99.90;;;;;;5009285;28;20073;-77
2021/10/14 09:40:00;;;;;;;9.45;4.40;;;14.10;99.90;;;;;;4974085;28;20054;-78
2021/10/14 09:42:41;;;;;;;10.20;4.72;;;14.00;99.90;;;;;;4988318;28;20485;-77
2021/10/14 09:45:35;;;;;;;6.97;4.60;;;14.20;99.90;;;;;;4988136;28;20051;-79
2021/10/14 09:48:04;;;;;;;9.40;5.05;;;14.20;99.90;;;;;;4978710;28;20047;-77
2021/10/14 09:50:34;;;;;;;10.35;5.57;;;14.30;99.90;;;;;;4984345;28;20101;-77
2021/10/14 09:53:01;;;;;;;11.40;5.68;;;14.30;99.90;;;;;;4994770;28;20424;-78
2021/10/14 09:55:27;;;;;;;13.27;5.80;;;14.30;99.90;;;;;;4982828;28;20079;-77
2021/10/14 09:57:55;;;;;;;12.77;5.80;;;14.40;99.90;;;;;;4971098;28;20118;-82
2021/10/14 10:00:21;;;;;;;17.27;6.25;;;14.40;99.90;;;;;;4974430;28;20056;-80
2021/10/14 10:02:48;;;;;;;8.50;6.10;;;14.40;99.90;;;;;;5012761;28;20477;-76
2021/10/14 10:05:13;;;;;;;14.63;5.00;;;14.40;99.90;;;;;;4962324;28;20085;-78
2021/10/14 10:07:42;;;;;;;14.82;5.95;;;14.50;99.90;;;;;;4995899;28;20411;-77
2021/10/14 10:10:10;;;;;;;11.20;6.28;;;14.50;99.90;;;;;;4975917;28;20145;-76
2021/10/14 10:12:37;;;;;;;13.20;6.10;;;14.50;99.90;;;;;;4976178;28;20054;-77
2021/10/14 10:15:04;;;;;;;10.82;5.95;;;14.60;99.90;;;;;;4975514;28;20092;-77
2021/10/14 10:17:41;;;;;;;9.63;5.63;;;14.60;99.90;;;;;;4973691;28;20056;-78
2021/10/14 10:20:08;;;;;;;11.23;5.32;;;14.70;99.90;;;;;;4987266;28;20049;-78
2021/10/14 10:22:34;;;;;;;12.07;5.40;;;14.70;99.90;;;;;;4985576;28;20096;-79
2021/10/14 10:25:19;;;;;;;10.57;5.50;;;14.70;99.90;;;;;;4985964;28;20042;-76
2021/10/14 10:27:45;;;;;;;11.02;5.22;;;14.60;99.90;;;;;;4978438;28;20077;-77
2021/10/14 10:30:27;;;;;;;9.40;4.43;;;14.50;99.90;;;;;;4972251;28;20586;-77
2021/10/14 10:32:53;;;;;;;13.40;4.60;;;14.60;99.90;;;;;;4988194;28;20409;-78
2021/10/14 10:35:41;;;;;;;9.75;4.13;;;14.60;99.90;;;;;;4987496;28;20056;-77
2021/10/14 10:38:14;;;;;;;6.82;4.30;;;14.60;99.90;;;;;;4971393;28;20048;-77
2021/10/14 10:40:40;;;;;;;11.07;4.38;;;14.70;99.90;;;;;;4986609;28;20057;-77
2021/10/14 10:43:32;;;;;;;9.52;3.50;;;14.70;99.90;;;;;;4982593;28;20065;-75
2021/10/14 10:46:04;;;;;;;9.43;3.80;;;14.70;99.90;;;;;;4982290;28;20046;-78
2021/10/14 10:48:40;;;;;;;7.25;2.80;;;14.80;99.90;;;;;;4986834;28;20061;-76
2021/10/14 10:51:25;;;;;;;9.82;3.78;;;14.80;99.90;;;;;;4978029;28;20711;-75
2021/10/14 10:53:52;;;;;;;10.95;3.45;;;14.80;99.90;;;;;;4986360;28;20046;-79
2021/10/14 10:56:33;;;;;;;8.82;3.22;;;14.70;99.90;;;;;;4961691;28;20408;-78
2021/10/14 10:59:00;;;;;;;6.43;2.80;;;14.70;99.90;;;;;;4982620;28;20077;-77
2021/10/14 11:01:26;;;;;;;7.13;2.58;;;14.70;99.90;;;;;;4983477;28;20140;-78
2021/10/14 11:03:58;;;;;;;8.45;2.85;;;14.80;99.90;;;;;;4980714;28;20466;-80
2021/10/14 11:06:26;;;;;;;10.70;2.63;;;14.80;99.90;;;;;;4987504;28;20169;-77
2021/10/14 11:08:53;;;;;;;4.93;2.30;;;14.80;99.90;;;;;;4983917;28;20061;-78
2021/10/14 11:11:21;;;;;;;13.23;2.80;;;14.90;99.90;;;;;;4986818;28;20077;-79
2021/10/14 11:13:53;;;;;;;10.23;2.47;;;14.90;99.90;;;;;;4981637;28;20056;-79
2021/10/14 11:16:22;;;;;;;8.27;2.47;;;15.10;99.90;;;;;;4984660;28;20477;-79
2021/10/14 11:18:49;;;;;;;7.03;2.40;;;15.10;99.90;;;;;;4987119;28;20069;-76
2021/10/14 11:21:18;;;;;;;5.53;2.17;;;15.20;99.90;;;;;;4985342;28;20052;-77
2021/10/14 11:23:50;;;;;;;11.07;2.35;;;15.20;99.90;;;;;;4986101;28;20513;-76
2021/10/14 11:29:18;;;;;;;6.47;2.50;;;15.20;99.90;;;;;;4986723;28;20108;-77
2021/10/14 11:31:45;;;;;;;6.63;2.55;;;15.30;99.90;;;;;;4973339;28;20089;-77
2021/10/14 11:34:21;;;;;;;10.07;2.83;;;15.40;99.90;;;;;;4980028;28;20058;-78
2021/10/14 11:36:54;;;;;;;5.22;2.50;;;15.40;99.90;;;;;;4980945;28;20228;-76
2021/10/14 11:39:25;;;;;;;7.88;2.90;;;15.40;99.90;;;;;;4982168;28;20124;-75
2021/10/14 11:41:59;;;;;;;7.35;2.80;;;15.50;99.90;;;;;;4989574;28;20184;-76
2021/10/14 11:44:29;;;;;;;6.47;2.88;;;15.50;99.90;;;;;;4974974;28;20045;-78
2021/10/14 11:46:55;;;;;;;5.80;2.35;;;15.50;99.90;;;;;;4986091;28;20082;-76
2021/10/14 11:49:21;;;;;;;8.27;3.08;;;15.60;99.90;;;;;;5004921;28;20116;-75
2021/10/14 11:51:50;;;;;;;7.97;2.70;;;15.60;99.90;;;;;;4991134;28;20125;-75
2021/10/14 11:54:17;;;;;;;6.15;2.58;;;15.60;99.90;;;;;;4988419;28;20424;-75
2021/10/14 11:56:48;;;;;;;8.75;2.90;;;15.60;99.90;;;;;;4991450;28;20100;-76
2021/10/14 11:59:16;;;;;;;6.18;2.80;;;15.50;99.90;;;;;;4990308;28;20061;-76
2021/10/14 12:02:33;;;;;;;9.48;3.00;;;15.40;99.90;;;;;;4994303;28;20173;-76
2021/10/14 12:05:01;;;;;;;7.93;2.92;;;15.60;99.90;;;;;;4912575;28;20109;-75
2021/10/14 12:07:29;;;;;;;7.00;3.03;;;15.60;99.90;;;;;;4915411;29;20125;-75
2021/10/14 12:09:57;;;;;;;5.60;2.92;;;15.50;99.90;;;;;;4898899;29;20052;-75
2021/10/14 12:12:27;;;;;;;9.32;3.22;;;15.50;99.90;;;;;;4914443;29;20044;-75
2021/10/14 12:15:03;;;;;;;5.85;3.40;;;15.60;99.90;;;;;;4914621;29;20473;-77
2021/10/14 12:17:46;;;;;;;5.28;3.10;;;15.60;99.90;;;;;;4920934;29;20075;-77
2021/10/14 12:20:23;;;;;;;8.02;3.55;;;15.60;99.90;;;;;;4931662;29;20047;-76
2021/10/14 12:22:56;;;;;;;11.38;3.88;;;15.70;99.90;;;;;;4919986;29;20139;-76
2021/10/14 12:25:40;;;;;;;7.00;3.40;;;15.70;99.90;;;;;;4904976;29;20086;-78
2021/10/14 12:28:13;;;;;;;7.00;4.10;;;15.80;99.90;;;;;;4896427;29;20048;-77
2021/10/14 12:30:40;;;;;;;8.88;4.05;;;15.80;99.90;;;;;;4908358;29;20036;-76
2021/10/14 12:33:11;;;;;;;7.35;3.55;;;15.80;99.90;;;;;;4918322;29;20047;-77
2021/10/14 12:36:01;;;;;;;8.13;3.85;;;15.70;99.90;;;;;;4915292;29;20069;-77
2021/10/14 12:38:39;;;;;;;11.10;3.92;;;15.70;99.90;;;;;;4924292;29;20060;-76
2021/10/14 12:41:17;;;;;;;9.15;3.70;;;15.70;99.90;;;;;;4939910;28;20476;-77
2021/10/14 12:43:58;;;;;;;7.47;3.67;;;15.90;99.90;;;;;;4993869;28;20136;-76